Lavras do Sul, Brazil
Current Conditions -  °F | °C
As of 12:20 AM on Wednesday 22 Oct 2014 (Local Time) from SBSM Reporting Station
Clear Clear  
Wind Chill: 61°   Ceiling: Unl
Heat Index: 61°   Visibility: 6mi
Dew Point: 55°   Wind: 5mph
Humidity: 82%   Direction: 50°NE
Pressure: 30.12"   Gusts: NA
Location:  30.81°S, 53.89°W
Report Text: SBSM 220220Z 05004KT CAVOK 16/13 Q1020
Loading
Personal Weather Stations






























Interactive Weather Map
Tropical Storm Tracking
New forecast layout! Learn more

10-Day Weather Forecast

Advertisements
Track Severe Weather on mobile